Time;durP1;ratioP1;P1;durP2;ratioP2;P2;SDS_P1;SDS_P2;PMS_P1;PMS_P2;Temp;Humidity;BMP_temperature;BMP_pressure;BME280_temperature;BME280_humidity;BME280_pressure;Samples;Min_cycle;Max_cycle;Signal;HPM_P1;HPM_P2
2022/05/18 00:01:43;;;;;;;10.63;4.82;;;15.50;99.90;;;;;;5031282;28;20043;-85
2022/05/18 00:04:08;;;;;;;11.73;4.93;;;15.40;99.90;;;;;;5016510;28;20124;-85
2022/05/18 00:06:34;;;;;;;12.85;5.05;;;15.40;99.90;;;;;;5018503;28;20068;-84
2022/05/18 00:09:00;;;;;;;11.80;4.85;;;15.40;99.90;;;;;;5035064;28;20044;-85
2022/05/18 00:11:25;;;;;;;7.85;4.45;;;15.30;99.90;;;;;;5018645;28;20040;-84
2022/05/18 00:13:53;;;;;;;16.05;5.10;;;15.30;99.90;;;;;;5034639;28;20092;-85
2022/05/18 00:16:21;;;;;;;13.10;4.97;;;15.30;99.90;;;;;;5017805;28;20116;-85
2022/05/18 00:18:48;;;;;;;9.55;5.28;;;15.20;99.90;;;;;;5017719;28;20025;-85
2022/05/18 00:21:14;;;;;;;10.60;5.35;;;15.10;99.90;;;;;;5017294;28;20037;-85
2022/05/18 00:23:39;;;;;;;9.88;5.40;;;15.00;99.90;;;;;;5017027;28;20083;-85
2022/05/18 00:26:06;;;;;;;10.77;5.57;;;14.90;99.90;;;;;;5017726;28;20034;-85
2022/05/18 00:28:32;;;;;;;9.98;5.32;;;14.80;99.90;;;;;;5017892;28;20427;-85
2022/05/18 00:30:59;;;;;;;10.95;5.28;;;14.80;99.90;;;;;;5017270;28;20370;-85
2022/05/18 00:33:25;;;;;;;11.02;5.63;;;14.80;99.90;;;;;;5034484;28;20022;-85
2022/05/18 00:35:51;;;;;;;9.23;6.18;;;14.70;99.90;;;;;;5034608;28;20037;-84
2022/05/18 00:38:17;;;;;;;7.63;5.43;;;14.70;99.90;;;;;;5034918;28;20397;-84
2022/05/18 00:40:49;;;;;;;9.60;5.50;;;14.60;99.90;;;;;;5017760;28;20021;-84
2022/05/18 00:43:38;;;;;;;11.25;5.28;;;14.50;99.90;;;;;;5034181;28;20393;-84
2022/05/18 00:46:07;;;;;;;8.52;5.40;;;14.50;99.90;;;;;;5017938;28;20551;-85
2022/05/18 00:48:33;;;;;;;7.18;5.63;;;14.50;99.90;;;;;;5034315;28;20557;-84
2022/05/18 00:51:03;;;;;;;9.88;5.75;;;14.40;99.90;;;;;;5017682;28;20584;-85
2022/05/18 00:53:34;;;;;;;14.13;6.65;;;14.40;99.90;;;;;;5017361;28;20080;-85
2022/05/18 00:56:05;;;;;;;11.27;5.68;;;14.30;99.90;;;;;;5017735;28;20025;-85
2022/05/18 00:58:48;;;;;;;15.45;7.43;;;14.20;99.90;;;;;;5034860;28;20034;-85
2022/05/18 01:01:14;;;;;;;9.27;5.57;;;14.20;99.90;;;;;;5016947;28;20144;-85
2022/05/18 01:03:44;;;;;;;10.95;6.03;;;14.10;99.90;;;;;;5016696;28;20029;-85
2022/05/18 01:06:20;;;;;;;9.57;6.03;;;14.10;99.90;;;;;;5017412;28;20060;-85
2022/05/18 01:09:26;;;;;;;9.20;6.50;;;14.00;99.90;;;;;;5017185;28;20042;-85
2022/05/18 01:11:53;;;;;;;12.60;6.47;;;14.10;99.90;;;;;;5011654;28;20041;-85
2022/05/18 01:14:41;;;;;;;10.50;5.55;;;14.00;99.90;;;;;;5033452;28;20044;-85
2022/05/18 01:17:07;;;;;;;8.55;6.00;;;14.00;99.90;;;;;;5033424;28;20029;-84
2022/05/18 01:19:45;;;;;;;13.18;6.72;;;14.00;99.90;;;;;;5017094;28;20052;-85
2022/05/18 01:22:35;;;;;;;9.18;6.75;;;14.00;99.90;;;;;;5017078;28;20492;-85
2022/05/18 01:25:07;;;;;;;13.60;7.05;;;14.00;99.90;;;;;;5016870;28;20037;-85
2022/05/18 01:27:33;;;;;;;9.32;5.82;;;14.00;99.90;;;;;;5033238;28;20439;-84
2022/05/18 01:29:59;;;;;;;12.38;6.00;;;13.90;99.90;;;;;;5016146;28;20570;-84
2022/05/18 01:32:36;;;;;;;16.73;6.63;;;14.00;99.90;;;;;;5032784;28;20056;-84
2022/05/18 01:35:03;;;;;;;9.23;6.53;;;13.90;99.90;;;;;;5016172;28;20392;-84
2022/05/18 01:37:28;;;;;;;11.60;6.40;;;13.90;99.90;;;;;;5032810;28;20124;-85
2022/05/18 01:39:58;;;;;;;9.63;6.63;;;13.90;99.90;;;;;;5016675;28;20632;-84
2022/05/18 01:42:35;;;;;;;10.00;5.82;;;13.90;99.90;;;;;;5015985;28;20447;-85
2022/05/18 01:45:01;;;;;;;9.98;5.65;;;13.90;99.90;;;;;;5033694;28;20037;-84
2022/05/18 01:48:07;;;;;;;10.30;6.70;;;13.90;99.90;;;;;;5032872;28;20029;-84
2022/05/18 01:50:33;;;;;;;9.73;5.88;;;13.90;99.90;;;;;;5032773;28;20029;-85
2022/05/18 01:52:59;;;;;;;11.98;5.05;;;13.90;99.90;;;;;;5016049;28;20133;-84
2022/05/18 01:55:24;;;;;;;8.93;5.72;;;13.90;99.90;;;;;;5032559;28;20029;-84
2022/05/18 01:57:50;;;;;;;10.60;5.68;;;13.90;99.90;;;;;;5032094;28;20034;-84
2022/05/18 02:00:16;;;;;;;13.57;6.30;;;13.90;99.90;;;;;;5016047;28;20519;-84
2022/05/18 02:02:42;;;;;;;13.30;5.97;;;13.90;99.90;;;;;;5032319;28;20045;-85
2022/05/18 02:05:08;;;;;;;12.27;6.20;;;13.90;99.90;;;;;;5032641;28;20033;-85
2022/05/18 02:07:34;;;;;;;11.27;5.78;;;13.90;99.90;;;;;;5032484;28;20037;-85
2022/05/18 02:09:59;;;;;;;12.40;6.45;;;13.90;99.90;;;;;;5015519;28;20087;-85
2022/05/18 02:12:26;;;;;;;9.65;5.85;;;13.80;99.90;;;;;;5031922;28;20038;-85
2022/05/18 02:14:51;;;;;;;9.82;5.65;;;13.80;99.90;;;;;;5016145;28;20029;-85
2022/05/18 02:17:17;;;;;;;12.40;6.10;;;13.80;99.90;;;;;;5015960;28;20095;-85
2022/05/18 02:19:43;;;;;;;9.75;5.55;;;13.60;99.90;;;;;;5032208;28;20021;-85
2022/05/18 02:22:09;;;;;;;9.90;5.82;;;13.70;99.90;;;;;;5015735;28;20040;-85
2022/05/18 02:24:34;;;;;;;8.15;5.72;;;13.60;99.90;;;;;;5015481;28;20392;-85
2022/05/18 02:27:00;;;;;;;11.23;5.97;;;13.60;99.90;;;;;;5014953;28;20029;-84
2022/05/18 02:29:26;;;;;;;10.95;6.22;;;13.50;99.90;;;;;;5033638;28;20120;-85
2022/05/18 02:31:51;;;;;;;13.15;6.32;;;13.50;99.90;;;;;;5032092;28;20071;-85
2022/05/18 02:34:17;;;;;;;12.45;7.13;;;13.50;99.90;;;;;;5031922;28;20136;-84
2022/05/18 02:36:44;;;;;;;9.13;6.32;;;13.50;99.90;;;;;;5015739;28;20032;-84
2022/05/18 02:39:10;;;;;;;9.90;6.40;;;13.40;99.90;;;;;;5031664;28;20117;-85
2022/05/18 02:41:35;;;;;;;9.30;6.65;;;13.40;99.90;;;;;;5015094;28;20042;-84
2022/05/18 02:44:01;;;;;;;10.93;7.18;;;13.50;99.90;;;;;;5014525;28;20477;-84
2022/05/18 02:46:49;;;;;;;10.52;6.63;;;13.50;99.90;;;;;;5015165;28;20037;-84
2022/05/18 02:49:17;;;;;;;12.20;6.43;;;13.50;99.90;;;;;;5015813;28;20029;-85
2022/05/18 02:51:43;;;;;;;10.88;6.82;;;13.40;99.90;;;;;;5015309;28;20128;-84
2022/05/18 02:56:54;;;;;;;11.02;6.55;;;13.40;99.90;;;;;;5031263;28;20473;-85
2022/05/18 02:59:21;;;;;;;9.48;6.25;;;13.40;99.90;;;;;;5015377;28;20041;-85
2022/05/18 03:01:47;;;;;;;12.98;6.78;;;13.50;99.90;;;;;;5015551;28;20033;-85
2022/05/18 03:04:30;;;;;;;12.90;6.68;;;13.50;99.90;;;;;;5031829;28;20065;-85
2022/05/18 03:06:56;;;;;;;12.07;6.35;;;13.60;99.90;;;;;;5014997;28;20087;-85
2022/05/18 03:09:22;;;;;;;13.82;7.40;;;13.60;99.90;;;;;;5031413;28;20108;-85
2022/05/18 03:11:50;;;;;;;11.43;6.75;;;13.60;99.90;;;;;;5032908;28;20108;-85
2022/05/18 03:14:16;;;;;;;11.55;6.95;;;13.60;99.90;;;;;;5015177;28;20036;-85
2022/05/18 03:16:44;;;;;;;15.10;7.00;;;13.60;99.90;;;;;;5015107;28;20064;-85
2022/05/18 03:19:13;;;;;;;12.02;6.95;;;13.60;99.90;;;;;;5013912;28;20033;-85
2022/05/18 03:24:38;;;;;;;8.98;6.43;;;13.50;99.90;;;;;;5031339;28;20041;-84
2022/05/18 03:27:04;;;;;;;10.65;6.28;;;13.40;99.90;;;;;;5014811;28;20033;-85
2022/05/18 03:29:30;;;;;;;15.00;6.35;;;13.30;99.90;;;;;;5030793;28;20033;-85
2022/05/18 03:31:56;;;;;;;11.23;7.07;;;13.20;99.90;;;;;;5014327;28;20068;-85
2022/05/18 03:34:22;;;;;;;14.27;6.85;;;13.30;99.90;;;;;;5014107;28;20116;-85
2022/05/18 03:36:47;;;;;;;8.75;6.55;;;13.30;99.90;;;;;;5014503;28;20548;-85
2022/05/18 03:39:13;;;;;;;16.05;6.72;;;13.20;99.90;;;;;;5017404;28;20147;-85
2022/05/18 03:41:40;;;;;;;13.55;6.90;;;13.20;99.90;;;;;;5018791;28;20488;-82
2022/05/18 03:44:07;;;;;;;10.75;6.32;;;13.20;99.90;;;;;;5018720;28;20499;-83
2022/05/18 03:46:33;;;;;;;11.45;7.03;;;13.20;99.90;;;;;;5017949;28;20037;-82
2022/05/18 03:48:59;;;;;;;11.45;6.47;;;13.10;99.90;;;;;;5018058;28;20091;-82
2022/05/18 03:51:25;;;;;;;11.63;6.78;;;13.00;99.90;;;;;;5017605;28;20033;-82
2022/05/18 03:53:51;;;;;;;10.02;7.10;;;13.10;99.90;;;;;;5018361;28;20029;-82
2022/05/18 03:56:18;;;;;;;14.73;7.03;;;13.10;99.90;;;;;;5034871;28;20129;-82
2022/05/18 03:58:44;;;;;;;10.05;7.07;;;13.20;99.90;;;;;;5018386;28;20033;-82
2022/05/18 04:01:10;;;;;;;15.43;7.43;;;13.30;99.90;;;;;;5018616;28;20037;-82
2022/05/18 04:03:39;;;;;;;11.13;6.13;;;13.30;99.90;;;;;;5018307;28;20033;-82
2022/05/18 04:06:05;;;;;;;10.85;6.70;;;13.30;99.90;;;;;;5018287;28;20041;-82
2022/05/18 04:08:31;;;;;;;15.25;6.68;;;13.20;99.90;;;;;;5018391;28;20040;-82
2022/05/18 04:10:57;;;;;;;10.80;5.97;;;13.20;99.90;;;;;;5017889;28;20038;-82
2022/05/18 04:13:25;;;;;;;12.85;6.50;;;13.10;99.90;;;;;;5017643;28;20032;-82
2022/05/18 04:15:51;;;;;;;9.48;6.40;;;13.20;99.90;;;;;;5017737;28;20624;-82
2022/05/18 04:18:18;;;;;;;12.90;6.68;;;13.20;99.90;;;;;;5017456;28;20088;-82
2022/05/18 04:20:45;;;;;;;13.07;7.25;;;13.20;99.90;;;;;;5017812;28;20048;-82
2022/05/18 04:23:12;;;;;;;10.00;5.65;;;13.30;99.90;;;;;;5034002;28;20121;-82
2022/05/18 04:25:39;;;;;;;13.15;6.38;;;13.30;99.90;;;;;;5017224;28;20029;-82
2022/05/18 04:28:07;;;;;;;8.38;6.05;;;13.40;99.90;;;;;;5018179;28;20568;-82
2022/05/18 04:30:33;;;;;;;8.98;6.28;;;13.50;99.90;;;;;;5017983;28;20112;-82
2022/05/18 04:32:59;;;;;;;12.73;6.00;;;13.50;99.90;;;;;;5017787;28;20037;-82
2022/05/18 04:35:27;;;;;;;10.30;6.53;;;13.50;99.90;;;;;;5034243;28;20543;-82
2022/05/18 04:37:53;;;;;;;9.70;6.10;;;13.50;99.90;;;;;;5017738;28;20099;-82
2022/05/18 04:40:19;;;;;;;8.43;5.88;;;13.60;99.90;;;;;;5034228;28;20593;-82
2022/05/18 04:42:45;;;;;;;13.32;6.32;;;13.60;99.90;;;;;;5033805;28;20453;-82
2022/05/18 04:45:14;;;;;;;9.50;5.65;;;13.70;99.90;;;;;;5033812;28;20037;-82
2022/05/18 04:47:39;;;;;;;7.65;5.45;;;13.70;99.90;;;;;;5017194;28;20543;-82
2022/05/18 04:50:07;;;;;;;9.98;5.88;;;13.90;99.90;;;;;;5016286;28;20072;-82
2022/05/18 04:52:32;;;;;;;9.63;5.88;;;14.00;99.90;;;;;;5016975;28;20454;-82
2022/05/18 04:54:58;;;;;;;10.10;6.70;;;14.10;99.90;;;;;;5016913;28;20121;-82
2022/05/18 04:57:24;;;;;;;9.73;5.78;;;14.20;99.90;;;;;;5016709;28;20043;-82
2022/05/18 04:59:50;;;;;;;9.52;4.97;;;14.40;99.90;;;;;;5016282;28;20056;-82
2022/05/18 05:02:40;;;;;;;8.75;4.53;;;14.50;99.90;;;;;;5016821;28;20037;-82
2022/05/18 05:05:40;;;;;;;9.45;5.25;;;14.70;99.90;;;;;;5016892;28;20048;-82
2022/05/18 05:08:18;;;;;;;8.77;5.20;;;14.80;99.90;;;;;;5016936;28;20041;-83
2022/05/18 05:10:43;;;;;;;11.80;5.13;;;14.80;99.90;;;;;;5034682;28;20033;-82
2022/05/18 05:13:09;;;;;;;7.32;5.30;;;14.90;99.90;;;;;;5016460;28;20029;-82
2022/05/18 05:15:37;;;;;;;15.38;6.07;;;15.00;99.90;;;;;;5016626;28;20041;-82
2022/05/18 05:18:03;;;;;;;8.45;5.20;;;15.10;99.90;;;;;;5017112;28;20037;-83
2022/05/18 05:21:00;;;;;;;13.77;6.25;;;15.20;99.90;;;;;;5017180;28;20029;-82
2022/05/18 05:23:26;;;;;;;9.18;5.28;;;15.30;99.90;;;;;;5016822;28;20512;-82
2022/05/18 05:25:53;;;;;;;11.60;5.32;;;15.50;99.90;;;;;;5016700;28;20052;-82
2022/05/18 05:28:20;;;;;;;10.48;5.85;;;15.70;99.90;;;;;;5016681;28;20436;-82
2022/05/18 05:30:46;;;;;;;10.68;5.57;;;16.00;99.90;;;;;;5033321;28;20032;-82
2022/05/18 05:33:12;;;;;;;10.20;5.38;;;16.20;99.90;;;;;;5032761;28;20029;-82
2022/05/18 05:35:41;;;;;;;10.82;5.05;;;16.40;99.90;;;;;;5033118;28;20027;-83
2022/05/18 05:38:08;;;;;;;13.18;5.43;;;16.50;99.90;;;;;;5016819;28;20029;-82
2022/05/18 05:40:34;;;;;;;10.95;5.47;;;16.70;99.90;;;;;;5033248;28;20609;-82
2022/05/18 05:43:06;;;;;;;10.80;5.00;;;16.80;99.90;;;;;;5032591;28;20029;-82
2022/05/18 05:45:32;;;;;;;9.88;4.97;;;16.80;99.90;;;;;;5033804;28;20036;-82
2022/05/18 05:47:58;;;;;;;8.55;5.15;;;17.00;99.90;;;;;;5016006;28;20037;-83
2022/05/18 05:50:25;;;;;;;12.18;4.43;;;17.00;99.90;;;;;;5032608;28;20041;-82
2022/05/18 05:52:52;;;;;;;10.30;4.75;;;17.10;99.90;;;;;;5032117;28;20048;-82
2022/05/18 05:55:18;;;;;;;10.48;5.03;;;17.20;99.90;;;;;;5016299;28;20509;-82
2022/05/18 05:57:43;;;;;;;8.82;4.95;;;17.30;99.90;;;;;;5032591;28;20025;-82
2022/05/18 06:00:10;;;;;;;12.10;4.47;;;17.40;99.90;;;;;;5016320;28;20505;-82
2022/05/18 06:02:38;;;;;;;10.15;5.00;;;17.50;99.90;;;;;;5033809;28;20102;-83
2022/05/18 06:05:04;;;;;;;7.57;4.85;;;17.50;99.90;;;;;;5015782;28;20037;-83
2022/05/18 06:07:31;;;;;;;8.73;4.90;;;17.60;99.90;;;;;;5015545;28;20048;-83
2022/05/18 06:09:57;;;;;;;10.55;4.57;;;17.60;99.90;;;;;;5015846;28;20036;-82
2022/05/18 06:12:27;;;;;;;8.02;4.32;;;17.70;99.90;;;;;;5015826;28;20033;-82
2022/05/18 06:14:53;;;;;;;9.77;5.03;;;17.80;99.90;;;;;;5015360;28;20029;-83
2022/05/18 06:17:20;;;;;;;7.93;4.65;;;17.80;99.90;;;;;;5015620;28;20052;-83
2022/05/18 06:19:45;;;;;;;9.52;4.43;;;17.90;99.90;;;;;;5015826;28;20036;-83
2022/05/18 06:22:11;;;;;;;6.20;4.57;;;18.00;99.90;;;;;;5015896;28;20157;-82
2022/05/18 06:24:55;;;;;;;6.25;4.63;;;18.00;99.90;;;;;;5032736;28;20029;-83
2022/05/18 06:27:21;;;;;;;8.73;4.00;;;18.10;99.90;;;;;;5015549;28;20038;-82
2022/05/18 06:29:49;;;;;;;7.95;4.15;;;18.10;99.90;;;;;;5015089;28;20048;-82
2022/05/18 06:32:16;;;;;;;7.00;4.13;;;18.20;99.90;;;;;;5015153;28;20045;-83
2022/05/18 06:34:42;;;;;;;8.20;4.50;;;18.30;99.90;;;;;;5014716;28;20079;-83
2022/05/18 06:37:08;;;;;;;9.05;4.65;;;18.40;99.90;;;;;;5014497;28;20033;-82
2022/05/18 06:39:34;;;;;;;7.82;4.30;;;18.40;99.90;;;;;;5014742;28;20039;-83
2022/05/18 06:42:00;;;;;;;15.93;4.78;;;18.50;99.90;;;;;;5014959;28;20087;-82
2022/05/18 06:44:26;;;;;;;10.82;4.25;;;18.50;99.90;;;;;;5031486;28;20029;-83
2022/05/18 06:46:52;;;;;;;11.75;4.50;;;18.60;99.90;;;;;;5032053;28;20431;-82
2022/05/18 06:49:19;;;;;;;7.85;4.47;;;18.70;99.90;;;;;;5033037;28;20040;-82
2022/05/18 06:51:46;;;;;;;8.13;4.63;;;18.80;99.90;;;;;;5031439;28;20041;-82
2022/05/18 06:54:13;;;;;;;8.82;4.60;;;18.90;99.90;;;;;;5031320;28;20524;-83
2022/05/18 06:56:42;;;;;;;8.10;4.72;;;19.00;99.90;;;;;;5014935;28;20048;-83
2022/05/18 06:59:09;;;;;;;7.38;4.00;;;19.00;99.90;;;;;;5015072;28;20033;-82
2022/05/18 07:01:35;;;;;;;12.75;4.68;;;19.10;99.90;;;;;;5032646;28;20026;-82
2022/05/18 07:04:01;;;;;;;13.30;4.70;;;19.00;99.90;;;;;;5014784;28;20025;-82
2022/05/18 07:06:30;;;;;;;14.38;4.25;;;19.10;99.90;;;;;;5031496;28;20131;-82
2022/05/18 07:08:57;;;;;;;10.48;4.93;;;19.10;99.90;;;;;;5014646;28;20030;-83
2022/05/18 07:11:24;;;;;;;10.57;4.70;;;19.10;99.90;;;;;;5014942;28;20037;-82
2022/05/18 07:13:54;;;;;;;9.65;4.57;;;19.20;99.90;;;;;;5014019;28;20028;-82
2022/05/18 07:16:21;;;;;;;10.80;4.53;;;19.30;99.90;;;;;;5014727;28;20053;-82
2022/05/18 07:18:48;;;;;;;9.35;4.70;;;19.30;99.90;;;;;;5014559;28;20033;-82
2022/05/18 07:21:14;;;;;;;9.95;5.18;;;19.40;99.90;;;;;;5031270;28;20539;-82
2022/05/18 07:23:41;;;;;;;8.13;4.78;;;19.50;99.90;;;;;;5013742;28;20044;-82
2022/05/18 07:26:07;;;;;;;5.63;4.03;;;19.70;99.90;;;;;;5030501;28;20056;-82
2022/05/18 07:29:10;;;;;;;7.95;4.50;;;19.70;99.90;;;;;;5014362;28;20039;-82
2022/05/18 07:34:23;;;;;;;11.27;4.60;;;19.80;99.90;;;;;;5030602;28;20362;-82
2022/05/18 07:36:52;;;;;;;7.72;4.15;;;19.80;99.90;;;;;;5030714;28;20397;-82
2022/05/18 07:39:18;;;;;;;12.95;4.90;;;19.90;99.90;;;;;;5030515;28;20062;-82
2022/05/18 07:41:45;;;;;;;7.57;4.88;;;19.90;99.90;;;;;;5029899;28;20119;-82
2022/05/18 07:44:11;;;;;;;6.78;4.13;;;20.10;99.90;;;;;;5014053;28;20484;-83
2022/05/18 07:46:38;;;;;;;5.45;4.07;;;20.30;99.90;;;;;;5014217;28;20037;-82
2022/05/18 07:49:05;;;;;;;11.52;3.63;;;20.80;99.90;;;;;;5014452;28;20030;-82
2022/05/18 07:51:33;;;;;;;6.05;3.60;;;21.60;99.90;;;;;;5014393;28;20044;-82
2022/05/18 07:53:59;;;;;;;5.15;3.40;;;22.70;99.90;;;;;;5031869;28;20026;-83
2022/05/18 07:56:27;;;;;;;7.00;3.47;;;24.10;99.90;;;;;;5014125;28;20436;-82
2022/05/18 07:58:54;;;;;;;7.95;3.58;;;24.90;99.90;;;;;;5014269;28;20022;-82
2022/05/18 08:01:36;;;;;;;6.25;3.30;;;25.00;99.90;;;;;;5014667;28;20037;-82
2022/05/18 08:04:03;;;;;;;8.88;3.25;;;25.50;99.90;;;;;;5030254;28;20424;-82
2022/05/18 08:06:32;;;;;;;13.05;3.30;;;25.80;99.90;;;;;;5030670;28;20033;-82
2022/05/18 08:08:58;;;;;;;7.13;3.30;;;26.10;99.90;;;;;;5014493;28;20084;-83
2022/05/18 08:17:00;;;;;;;5.47;3.20;;;29.00;99.10;;;;;;5030100;28;20527;-82
2022/05/18 08:19:29;;;;;;;9.63;2.95;;;27.90;96.20;;;;;;5030087;28;20481;-82
2022/05/18 08:21:55;;;;;;;8.20;3.35;;;27.40;96.70;;;;;;5013929;28;20183;-83
2022/05/18 08:24:22;;;;;;;6.25;2.97;;;27.40;96.70;;;;;;5013830;28;20538;-82
2022/05/18 08:26:48;;;;;;;5.90;3.20;;;27.40;96.40;;;;;;5033379;28;20112;-83
2022/05/18 08:29:15;;;;;;;7.88;3.10;;;27.30;95.70;;;;;;5017850;28;20037;-82
2022/05/18 08:31:41;;;;;;;6.43;3.55;;;27.20;95.70;;;;;;5017586;28;20034;-81
2022/05/18 08:34:08;;;;;;;6.53;3.28;;;27.10;96.30;;;;;;5033669;28;20030;-82
2022/05/18 08:36:35;;;;;;;6.57;3.33;;;28.00;96.50;;;;;;5017554;28;20108;-83
2022/05/18 08:39:01;;;;;;;5.75;3.58;;;27.70;95.20;;;;;;5017498;28;20031;-82
2022/05/18 08:41:41;;;;;;;6.93;3.28;;;27.20;95.10;;;;;;5017402;28;20036;-82
2022/05/18 08:44:14;;;;;;;6.63;3.30;;;27.30;96.00;;;;;;5033031;28;20495;-83
2022/05/18 08:46:53;;;;;;;5.20;3.13;;;28.20;96.20;;;;;;5033641;28;20268;-83
2022/05/18 08:49:43;;;;;;;5.32;2.92;;;29.30;93.90;;;;;;5033674;28;20044;-83
2022/05/18 08:52:46;;;;;;;7.00;3.20;;;28.80;93.20;;;;;;5033521;28;20488;-82
2022/05/18 08:55:45;;;;;;;6.00;3.78;;;28.40;92.70;;;;;;5033695;28;20021;-83
2022/05/18 08:58:17;;;;;;;3.55;2.65;;;28.80;92.00;;;;;;5033375;28;20033;-82
2022/05/18 09:00:48;;;;;;;5.22;3.25;;;29.10;91.60;;;;;;5017384;28;20025;-83
2022/05/18 09:03:28;;;;;;;5.97;3.35;;;29.40;91.00;;;;;;5016551;28;20501;-83
2022/05/18 09:06:04;;;;;;;4.93;3.15;;;29.60;90.70;;;;;;5016984;28;20029;-82
2022/05/18 09:08:36;;;;;;;5.93;3.10;;;29.10;91.20;;;;;;5016781;28;20484;-83
2022/05/18 09:14:51;;;;;;;7.85;3.22;;;29.30;90.80;;;;;;5034442;28;20040;-83
2022/05/18 09:17:26;;;;;;;5.80;2.85;;;28.50;89.00;;;;;;5033074;28;20040;-83
2022/05/18 09:20:13;;;;;;;3.97;2.90;;;28.60;91.30;;;;;;5016281;28;20029;-82
2022/05/18 09:23:07;;;;;;;4.60;3.10;;;29.10;86.70;;;;;;5016603;28;20035;-83
2022/05/18 09:25:42;;;;;;;6.07;3.10;;;29.30;85.70;;;;;;5032896;28;20029;-83
2022/05/18 09:28:33;;;;;;;14.45;3.60;;;29.90;86.20;;;;;;5016063;28;20065;-83
2022/05/18 09:31:21;;;;;;;3.70;2.75;;;29.70;83.80;;;;;;5032697;28;20022;-83
2022/05/18 09:34:25;;;;;;;4.28;2.88;;;29.70;83.70;;;;;;5015882;28;20030;-83
2022/05/18 09:40:23;;;;;;;7.13;2.75;;;29.70;83.60;;;;;;5033652;28;20061;-82
2022/05/18 09:43:25;;;;;;;6.78;2.38;;;29.40;79.00;;;;;;5015819;28;20037;-83
2022/05/18 09:45:54;;;;;;;4.82;2.53;;;30.00;79.20;;;;;;4997051;28;20093;-83
2022/05/18 09:48:35;;;;;;;19.45;3.90;;;30.40;78.80;;;;;;5033354;28;20109;-83
2022/05/18 09:51:02;;;;;;;8.40;2.60;;;30.40;77.90;;;;;;5031948;28;20068;-83
2022/05/18 09:53:29;;;;;;;10.57;3.10;;;30.10;78.50;;;;;;5014941;28;20124;-83
2022/05/18 09:55:56;;;;;;;5.70;3.35;;;29.60;74.30;;;;;;5032350;28;20028;-83
2022/05/18 09:58:29;;;;;;;6.03;2.85;;;29.60;75.30;;;;;;5032991;28;20739;-83
2022/05/18 10:09:49;;;;;;;4.75;2.70;;;27.90;80.30;;;;;;5032438;28;20040;-83
2022/05/18 10:12:23;;;;;;;7.57;3.00;;;27.10;82.00;;;;;;5032110;28;20034;-83
2022/05/18 10:14:57;;;;;;;10.70;3.10;;;26.60;84.50;;;;;;5031878;28;20032;-83
2022/05/18 10:17:35;;;;;;;7.35;2.92;;;26.50;87.50;;;;;;5032252;28;20032;-84
2022/05/18 10:20:23;;;;;;;4.65;2.38;;;26.80;86.50;;;;;;5015736;28;20037;-83
2022/05/18 10:22:50;;;;;;;7.32;2.47;;;26.50;83.90;;;;;;5015648;28;20409;-83
2022/05/18 10:25:27;;;;;;;3.92;2.38;;;27.00;84.60;;;;;;5015521;28;20033;-83
2022/05/18 10:27:55;;;;;;;7.10;3.03;;;26.90;82.40;;;;;;5015211;28;20040;-83
2022/05/18 10:30:30;;;;;;;5.10;2.53;;;26.90;85.30;;;;;;5015227;28;20029;-83
2022/05/18 10:33:04;;;;;;;6.05;2.60;;;27.50;83.00;;;;;;5031666;28;20036;-83
2022/05/18 10:35:44;;;;;;;5.05;2.70;;;28.00;83.70;;;;;;5031473;28;20036;-84
2022/05/18 10:38:22;;;;;;;5.00;2.42;;;27.70;79.30;;;;;;5015049;28;20038;-83
2022/05/18 10:41:35;;;;;;;6.70;2.33;;;27.90;81.90;;;;;;5014559;28;20036;-83
2022/05/18 10:44:05;;;;;;;7.82;2.58;;;28.10;84.00;;;;;;5014268;28;20120;-84
2022/05/18 10:46:55;;;;;;;3.10;1.83;;;28.80;81.60;;;;;;5031171;28;20420;-83
2022/05/18 10:49:29;;;;;;;7.13;2.15;;;28.70;78.60;;;;;;5014049;28;20033;-83
2022/05/18 10:52:13;;;;;;;11.02;2.40;;;28.90;79.00;;;;;;5032329;28;20168;-83
2022/05/18 10:54:40;;;;;;;9.00;2.70;;;28.30;76.80;;;;;;5014396;28;20041;-84
2022/05/18 10:57:12;;;;;;;6.60;2.53;;;28.10;78.30;;;;;;5014362;28;20040;-83
2022/05/18 11:00:31;;;;;;;3.15;2.03;;;28.80;78.50;;;;;;5014630;28;20029;-83
2022/05/18 11:03:34;;;;;;;3.08;1.90;;;29.20;76.90;;;;;;5031396;28;20029;-83
2022/05/18 11:06:18;;;;;;;4.78;2.05;;;28.80;76.80;;;;;;5015475;28;20045;-85
2022/05/18 11:08:44;;;;;;;4.63;2.50;;;28.60;73.70;;;;;;5015076;28;20033;-83
2022/05/18 11:11:27;;;;;;;2.65;1.83;;;29.10;78.70;;;;;;5015270;28;20041;-83
2022/05/18 11:14:04;;;;;;;5.57;2.13;;;29.30;73.10;;;;;;5014903;28;20029;-84
2022/05/18 11:16:35;;;;;;;3.92;2.25;;;29.80;74.80;;;;;;5015178;28;20107;-83
2022/05/18 11:19:14;;;;;;;6.00;1.90;;;29.20;73.90;;;;;;5014453;28;20044;-84
2022/05/18 11:21:57;;;;;;;2.60;1.98;;;29.20;72.30;;;;;;5014367;28;20041;-83
2022/05/18 11:24:44;;;;;;;2.90;2.05;;;29.70;73.30;;;;;;5032143;28;20117;-84
2022/05/18 11:27:34;;;;;;;3.10;2.15;;;30.50;71.70;;;;;;5014673;28;20037;-83
2022/05/18 11:30:15;;;;;;;3.78;1.92;;;29.70;70.50;;;;;;5030749;28;20048;-83
2022/05/18 11:33:03;;;;;;;7.00;2.50;;;30.00;71.50;;;;;;5014144;28;20117;-83
2022/05/18 11:36:04;;;;;;;7.15;1.90;;;29.10;71.00;;;;;;5014086;28;20080;-83
2022/05/18 11:38:32;;;;;;;7.07;1.95;;;28.70;71.20;;;;;;5014609;28;20084;-83
2022/05/18 11:41:07;;;;;;;8.88;1.95;;;28.70;70.20;;;;;;5014594;28;20026;-84
2022/05/18 11:43:54;;;;;;;3.53;2.10;;;28.40;76.70;;;;;;5014636;28;20477;-84
2022/05/18 11:46:38;;;;;;;4.13;2.10;;;28.20;74.80;;;;;;5030957;28;20131;-83
2022/05/18 11:49:20;;;;;;;3.53;2.28;;;28.10;71.40;;;;;;5031053;28;20069;-83
2022/05/18 11:52:12;;;;;;;4.90;2.13;;;27.70;72.50;;;;;;5031529;28;20065;-83
2022/05/18 11:55:08;;;;;;;5.88;2.42;;;27.50;73.10;;;;;;5014776;28;20030;-83
2022/05/18 11:58:01;;;;;;;7.88;2.42;;;27.40;74.00;;;;;;5014494;28;20030;-83
2022/05/18 12:04:11;;;;;;;5.65;2.42;;;26.80;74.10;;;;;;5033645;28;20561;-83
2022/05/18 12:06:55;;;;;;;4.28;2.63;;;27.20;75.30;;;;;;5018024;28;20128;-83
2022/05/18 12:09:42;;;;;;;4.88;2.28;;;27.40;73.10;;;;;;5033832;28;20507;-83
2022/05/18 12:12:22;;;;;;;10.18;2.60;;;27.40;73.50;;;;;;5034435;28;20038;-83
2022/05/18 12:15:04;;;;;;;3.78;2.08;;;27.50;75.30;;;;;;5034902;28;20029;-83
2022/05/18 12:17:54;;;;;;;5.35;2.28;;;27.80;71.70;;;;;;5034358;28;20029;-83
2022/05/18 12:20:31;;;;;;;5.70;2.53;;;28.00;71.50;;;;;;5035562;28;20094;-83
2022/05/18 12:22:59;;;;;;;3.80;2.50;;;28.10;72.10;;;;;;5017855;28;20091;-83
2022/05/18 12:25:28;;;;;;;4.60;2.13;;;28.30;74.10;;;;;;5036027;28;20040;-83
2022/05/18 12:27:58;;;;;;;4.68;2.08;;;28.40;72.20;;;;;;5035632;28;20033;-84
2022/05/18 12:34:14;;;;;;;3.90;2.03;;;29.40;70.90;;;;;;5035168;28;20044;-83
2022/05/18 12:36:53;;;;;;;3.30;1.90;;;29.70;71.60;;;;;;5034363;28;20037;-83
2022/05/18 12:39:31;;;;;;;2.63;1.95;;;30.10;66.50;;;;;;5017551;28;20095;-83
2022/05/18 12:42:00;;;;;;;2.35;1.90;;;30.30;65.50;;;;;;5017190;28;20033;-84
2022/05/18 12:44:34;;;;;;;5.70;2.15;;;30.90;64.30;;;;;;5017320;28;20032;-84
2022/05/18 12:47:08;;;;;;;5.05;2.15;;;31.40;67.00;;;;;;5017466;28;20050;-83
2022/05/18 12:49:39;;;;;;;1.95;1.75;;;30.90;65.20;;;;;;5017811;28;20400;-83
2022/05/18 12:52:17;;;;;;;;;;;30.30;64.20;;;;;;5017430;28;20448;-84
2022/05/18 12:54:53;;;;;;;5.80;2.35;;;30.70;65.40;;;;;;5049908;28;20011;-83
2022/05/18 12:57:40;;;;;;;4.68;1.95;;;30.80;66.40;;;;;;5033256;28;20041;-83
2022/05/18 13:01:00;;;;;;;2.47;1.42;;;30.60;65.10;;;;;;5016696;28;20029;-84
2022/05/18 13:03:51;;;;;;;6.03;1.95;;;31.30;63.50;;;;;;5016504;28;20117;-84
2022/05/18 13:06:39;;;;;;;2.97;1.63;;;31.40;62.10;;;;;;5016900;28;20128;-83
2022/05/18 13:09:34;;;;;;;5.65;2.28;;;31.60;60.60;;;;;;5016784;28;20025;-84
2022/05/18 13:12:22;;;;;;;4.20;1.95;;;31.30;60.10;;;;;;5016108;28;20404;-83
2022/05/18 13:15:04;;;;;;;3.65;2.05;;;31.20;59.40;;;;;;5016112;28;20030;-83
2022/05/18 13:18:07;;;;;;;8.45;3.38;;;30.80;59.00;;;;;;5034273;28;20432;-84
2022/05/18 13:20:40;;;;;;;9.02;1.90;;;31.10;59.70;;;;;;5023543;28;20072;-84
2022/05/18 13:23:24;;;;;;;4.38;2.00;;;31.10;58.70;;;;;;5034385;28;20037;-84
2022/05/18 13:26:00;;;;;;;3.88;1.92;;;30.50;61.80;;;;;;5016590;28;20043;-83
2022/05/18 13:29:13;;;;;;;3.47;1.95;;;30.30;64.00;;;;;;5034675;28;20029;-84
2022/05/18 13:31:40;;;;;;;3.58;1.98;;;30.60;61.20;;;;;;5016457;28;20084;-83
2022/05/18 13:34:21;;;;;;;3.28;1.70;;;29.80;60.40;;;;;;5016280;28;20044;-83
2022/05/18 13:36:58;;;;;;;5.43;2.00;;;30.00;64.10;;;;;;5032536;28;20029;-83
2022/05/18 13:39:33;;;;;;;5.07;1.98;;;30.90;61.20;;;;;;5032827;28;20072;-84
2022/05/18 13:42:03;;;;;;;6.97;2.00;;;31.10;61.00;;;;;;5032444;28;20065;-83
2022/05/18 13:44:29;;;;;;;4.97;1.90;;;31.50;60.40;;;;;;5015606;28;20559;-84
2022/05/18 13:46:57;;;;;;;5.00;1.77;;;31.80;60.70;;;;;;5032891;28;20121;-81
2022/05/18 13:49:27;;;;;;;2.67;1.98;;;31.30;62.30;;;;;;5032147;28;20154;-83